sensor_id;sensor_type;location;lat;lon;timestamp;pressure;altitude;pressure_sealevel;temperature;humidity
71889;BME280;59762;49.998;14.858;2022-10-24T00:02:24;97313.56;;;10.23;100.00
71889;BME280;59762;49.998;14.858;2022-10-24T00:04:49;97326.69;;;10.24;100.00
71889;BME280;59762;49.998;14.858;2022-10-24T00:07:15;97331.13;;;10.30;100.00
71889;BME280;59762;49.998;14.858;2022-10-24T00:09:40;97325.63;;;10.32;100.00
71889;BME280;59762;49.998;14.858;2022-10-24T00:12:07;97327.88;;;10.28;100.00
71889;BME280;59762;49.998;14.858;2022-10-24T00:14:34;97320.09;;;10.27;100.00
71889;BME280;59762;49.998;14.858;2022-10-24T00:17:00;97316.84;;;10.25;100.00
71889;BME280;59762;49.998;14.858;2022-10-24T00:19:25;97303.94;;;10.22;100.00
71889;BME280;59762;49.998;14.858;2022-10-24T00:21:51;97299.66;;;10.21;100.00
71889;BME280;59762;49.998;14.858;2022-10-24T00:24:17;97296.16;;;10.20;100.00
71889;BME280;59762;49.998;14.858;2022-10-24T00:26:42;97289.63;;;10.23;100.00
71889;BME280;59762;49.998;14.858;2022-10-24T00:29:09;97286.53;;;10.26;100.00
71889;BME280;59762;49.998;14.858;2022-10-24T00:31:34;97286.94;;;10.23;100.00
71889;BME280;59762;49.998;14.858;2022-10-24T00:34:01;97289.81;;;10.28;100.00
71889;BME280;59762;49.998;14.858;2022-10-24T00:36:27;97284.25;;;10.29;100.00
71889;BME280;59762;49.998;14.858;2022-10-24T00:38:53;97295.28;;;10.33;100.00
71889;BME280;59762;49.998;14.858;2022-10-24T00:41:28;97296.25;;;10.39;100.00
71889;BME280;59762;49.998;14.858;2022-10-24T00:46:41;97309.88;;;10.55;100.00
71889;BME280;59762;49.998;14.858;2022-10-24T00:49:17;97304.84;;;10.66;100.00
71889;BME280;59762;49.998;14.858;2022-10-24T00:51:45;97299.75;;;10.64;100.00
71889;BME280;59762;49.998;14.858;2022-10-24T00:54:13;97310.03;;;10.60;100.00
71889;BME280;59762;49.998;14.858;2022-10-24T00:57:01;97316.53;;;10.65;100.00
71889;BME280;59762;49.998;14.858;2022-10-24T00:59:29;97303.38;;;10.70;100.00
71889;BME280;59762;49.998;14.858;2022-10-24T01:01:55;97312.19;;;10.70;100.00
71889;BME280;59762;49.998;14.858;2022-10-24T01:04:21;97308.00;;;10.81;100.00
71889;BME280;59762;49.998;14.858;2022-10-24T01:09:36;97310.41;;;10.89;100.00
71889;BME280;59762;49.998;14.858;2022-10-24T01:12:45;97315.72;;;10.89;100.00
71889;BME280;59762;49.998;14.858;2022-10-24T01:20:41;97314.81;;;10.77;100.00
71889;BME280;59762;49.998;14.858;2022-10-24T01:28:33;97320.53;;;10.80;100.00
71889;BME280;59762;49.998;14.858;2022-10-24T01:31:09;97323.63;;;10.77;100.00
71889;BME280;59762;49.998;14.858;2022-10-24T01:33:39;97322.81;;;10.77;100.00
71889;BME280;59762;49.998;14.858;2022-10-24T01:36:23;97329.53;;;10.79;100.00
71889;BME280;59762;49.998;14.858;2022-10-24T01:38:56;97323.19;;;10.80;100.00
71889;BME280;59762;49.998;14.858;2022-10-24T01:41:27;97324.66;;;10.76;100.00
71889;BME280;59762;49.998;14.858;2022-10-24T01:46:24;97327.19;;;10.90;100.00
71889;BME280;59762;49.998;14.858;2022-10-24T01:48:56;97338.00;;;10.95;100.00
71889;BME280;59762;49.998;14.858;2022-10-24T01:51:26;97347.13;;;11.05;100.00
71889;BME280;59762;49.998;14.858;2022-10-24T01:53:54;97352.47;;;11.24;100.00
71889;BME280;59762;49.998;14.858;2022-10-24T01:56:23;97349.09;;;11.35;100.00
71889;BME280;59762;49.998;14.858;2022-10-24T01:58:49;97342.66;;;11.43;100.00
71889;BME280;59762;49.998;14.858;2022-10-24T02:01:20;97340.94;;;11.48;100.00
71889;BME280;59762;49.998;14.858;2022-10-24T02:03:55;97347.31;;;11.47;100.00
71889;BME280;59762;49.998;14.858;2022-10-24T02:06:26;97354.50;;;11.65;100.00
71889;BME280;59762;49.998;14.858;2022-10-24T02:09:02;97357.38;;;11.63;100.00
71889;BME280;59762;49.998;14.858;2022-10-24T02:11:30;97353.75;;;11.58;100.00
71889;BME280;59762;49.998;14.858;2022-10-24T02:14:14;97356.72;;;11.50;100.00
71889;BME280;59762;49.998;14.858;2022-10-24T02:16:42;97349.69;;;11.55;100.00
71889;BME280;59762;49.998;14.858;2022-10-24T02:19:08;97355.38;;;11.59;100.00
71889;BME280;59762;49.998;14.858;2022-10-24T02:22:10;97348.13;;;11.66;100.00
71889;BME280;59762;49.998;14.858;2022-10-24T02:24:49;97345.84;;;11.70;100.00
71889;BME280;59762;49.998;14.858;2022-10-24T02:27:22;97354.34;;;11.78;100.00
71889;BME280;59762;49.998;14.858;2022-10-24T02:30:07;97368.56;;;11.91;100.00
71889;BME280;59762;49.998;14.858;2022-10-24T02:32:36;97373.09;;;11.90;100.00
71889;BME280;59762;49.998;14.858;2022-10-24T02:35:04;97368.75;;;11.96;100.00
71889;BME280;59762;49.998;14.858;2022-10-24T02:37:33;97366.75;;;11.91;100.00
71889;BME280;59762;49.998;14.858;2022-10-24T02:40:02;97359.19;;;11.88;100.00
71889;BME280;59762;49.998;14.858;2022-10-24T02:42:30;97349.59;;;11.80;100.00
71889;BME280;59762;49.998;14.858;2022-10-24T02:44:59;97356.72;;;11.68;100.00
71889;BME280;59762;49.998;14.858;2022-10-24T02:47:25;97352.94;;;11.57;100.00
71889;BME280;59762;49.998;14.858;2022-10-24T02:49:53;97355.91;;;11.49;100.00
71889;BME280;59762;49.998;14.858;2022-10-24T02:52:19;97359.47;;;11.43;100.00
71889;BME280;59762;49.998;14.858;2022-10-24T02:54:45;97368.56;;;11.35;100.00
71889;BME280;59762;49.998;14.858;2022-10-24T02:57:10;97364.19;;;11.23;100.00
71889;BME280;59762;49.998;14.858;2022-10-24T02:59:38;97349.50;;;11.14;100.00
71889;BME280;59762;49.998;14.858;2022-10-24T03:02:03;97348.16;;;11.04;100.00
71889;BME280;59762;49.998;14.858;2022-10-24T03:04:29;97335.28;;;11.01;100.00
71889;BME280;59762;49.998;14.858;2022-10-24T03:06:55;97341.25;;;10.97;100.00
71889;BME280;59762;49.998;14.858;2022-10-24T03:09:20;97335.53;;;10.93;100.00
71889;BME280;59762;49.998;14.858;2022-10-24T03:11:46;97339.47;;;10.91;100.00
71889;BME280;59762;49.998;14.858;2022-10-24T03:14:12;97331.25;;;10.92;100.00
71889;BME280;59762;49.998;14.858;2022-10-24T03:16:37;97353.19;;;10.94;100.00
71889;BME280;59762;49.998;14.858;2022-10-24T03:19:03;97357.47;;;10.95;100.00
71889;BME280;59762;49.998;14.858;2022-10-24T03:21:28;97326.06;;;10.97;100.00
71889;BME280;59762;49.998;14.858;2022-10-24T03:23:54;97320.75;;;10.97;100.00
71889;BME280;59762;49.998;14.858;2022-10-24T03:26:20;97323.88;;;10.94;100.00
71889;BME280;59762;49.998;14.858;2022-10-24T03:28:45;97312.56;;;10.99;100.00
71889;BME280;59762;49.998;14.858;2022-10-24T03:31:11;97302.75;;;10.93;100.00
71889;BME280;59762;49.998;14.858;2022-10-24T03:33:37;97301.13;;;10.92;100.00
71889;BME280;59762;49.998;14.858;2022-10-24T03:36:03;97289.72;;;10.84;100.00
71889;BME280;59762;49.998;14.858;2022-10-24T03:38:28;97299.56;;;10.84;100.00
71889;BME280;59762;49.998;14.858;2022-10-24T03:40:54;97291.03;;;10.75;100.00
71889;BME280;59762;49.998;14.858;2022-10-24T03:43:20;97299.47;;;10.72;100.00
71889;BME280;59762;49.998;14.858;2022-10-24T03:45:45;97304.66;;;10.67;100.00
71889;BME280;59762;49.998;14.858;2022-10-24T03:48:11;97314.31;;;10.61;100.00
71889;BME280;59762;49.998;14.858;2022-10-24T03:50:37;97306.38;;;10.55;100.00
71889;BME280;59762;49.998;14.858;2022-10-24T03:53:03;97300.69;;;10.51;100.00
71889;BME280;59762;49.998;14.858;2022-10-24T03:55:29;97294.53;;;10.51;100.00
71889;BME280;59762;49.998;14.858;2022-10-24T03:57:55;97276.13;;;10.49;100.00
71889;BME280;59762;49.998;14.858;2022-10-24T04:00:20;97270.97;;;10.54;100.00
71889;BME280;59762;49.998;14.858;2022-10-24T04:02:46;97272.72;;;10.60;100.00
71889;BME280;59762;49.998;14.858;2022-10-24T04:05:14;97279.03;;;10.66;100.00
71889;BME280;59762;49.998;14.858;2022-10-24T04:07:40;97288.59;;;10.74;100.00
71889;BME280;59762;49.998;14.858;2022-10-24T04:10:06;97297.78;;;10.78;100.00
71889;BME280;59762;49.998;14.858;2022-10-24T04:12:32;97290.22;;;10.75;100.00
71889;BME280;59762;49.998;14.858;2022-10-24T04:14:58;97297.56;;;10.79;100.00
71889;BME280;59762;49.998;14.858;2022-10-24T04:17:23;97284.69;;;10.76;100.00
71889;BME280;59762;49.998;14.858;2022-10-24T04:19:49;97286.47;;;10.82;100.00
71889;BME280;59762;49.998;14.858;2022-10-24T04:22:15;97290.59;;;10.78;100.00
71889;BME280;59762;49.998;14.858;2022-10-24T04:24:41;97285.03;;;10.80;100.00
71889;BME280;59762;49.998;14.858;2022-10-24T04:27:07;97290.59;;;10.78;100.00
71889;BME280;59762;49.998;14.858;2022-10-24T04:29:33;97290.22;;;10.75;100.00
71889;BME280;59762;49.998;14.858;2022-10-24T04:32:00;97288.56;;;10.80;100.00
71889;BME280;59762;49.998;14.858;2022-10-24T04:34:26;97293.69;;;10.75;100.00
71889;BME280;59762;49.998;14.858;2022-10-24T04:36:51;97288.81;;;10.72;100.00
71889;BME280;59762;49.998;14.858;2022-10-24T04:39:17;97290.84;;;10.77;100.00
71889;BME280;59762;49.998;14.858;2022-10-24T04:41:46;97288.16;;;10.77;100.00
71889;BME280;59762;49.998;14.858;2022-10-24T04:44:11;97291.63;;;10.77;100.00
71889;BME280;59762;49.998;14.858;2022-10-24T04:46:38;97293.50;;;10.77;100.00
71889;BME280;59762;49.998;14.858;2022-10-24T04:49:04;97294.31;;;10.77;100.00
71889;BME280;59762;49.998;14.858;2022-10-24T04:51:29;97287.94;;;10.78;100.00
71889;BME280;59762;49.998;14.858;2022-10-24T04:53:55;97295.50;;;10.81;100.00
71889;BME280;59762;49.998;14.858;2022-10-24T04:56:21;97295.28;;;10.83;100.00
71889;BME280;59762;49.998;14.858;2022-10-24T04:58:47;97293.00;;;10.86;100.00
71889;BME280;59762;49.998;14.858;2022-10-24T05:01:13;97287.28;;;10.83;100.00
71889;BME280;59762;49.998;14.858;2022-10-24T05:03:38;97298.16;;;10.81;100.00
71889;BME280;59762;49.998;14.858;2022-10-24T05:06:04;97300.03;;;10.81;100.00
71889;BME280;59762;49.998;14.858;2022-10-24T05:08:30;97286.69;;;10.81;100.00
71889;BME280;59762;49.998;14.858;2022-10-24T05:10:55;97284.03;;;10.81;100.00
71889;BME280;59762;49.998;14.858;2022-10-24T05:13:21;97280.31;;;10.82;100.00
71889;BME280;59762;49.998;14.858;2022-10-24T05:15:47;97283.81;;;10.82;100.00
71889;BME280;59762;49.998;14.858;2022-10-24T05:18:12;97278.03;;;10.85;100.00
71889;BME280;59762;49.998;14.858;2022-10-24T05:20:38;97284.75;;;10.88;100.00
71889;BME280;59762;49.998;14.858;2022-10-24T05:23:03;97288.41;;;10.94;100.00
71889;BME280;59762;49.998;14.858;2022-10-24T05:25:29;97293.53;;;10.95;100.00
71889;BME280;59762;49.998;14.858;2022-10-24T05:27:55;97295.38;;;10.95;100.00
71889;BME280;59762;49.998;14.858;2022-10-24T05:30:21;97300.03;;;10.99;100.00
71889;BME280;59762;49.998;14.858;2022-10-24T05:32:46;97296.34;;;11.00;100.00
71889;BME280;59762;49.998;14.858;2022-10-24T05:35:12;97288.78;;;10.97;100.00
71889;BME280;59762;49.998;14.858;2022-10-24T05:37:38;97295.75;;;10.98;100.00
71889;BME280;59762;49.998;14.858;2022-10-24T05:40:06;97301.22;;;11.03;100.00
71889;BME280;59762;49.998;14.858;2022-10-24T05:42:33;97298.94;;;11.07;100.00
71889;BME280;59762;49.998;14.858;2022-10-24T05:44:59;97297.75;;;11.03;100.00
71889;BME280;59762;49.998;14.858;2022-10-24T05:47:24;97293.00;;;11.05;100.00
71889;BME280;59762;49.998;14.858;2022-10-24T05:49:50;97283.38;;;11.04;100.00
71889;BME280;59762;49.998;14.858;2022-10-24T05:52:15;97273.31;;;11.06;100.00
71889;BME280;59762;49.998;14.858;2022-10-24T05:54:41;97266.72;;;11.08;100.00
71889;BME280;59762;49.998;14.858;2022-10-24T05:57:06;97259.31;;;11.10;100.00
71889;BME280;59762;49.998;14.858;2022-10-24T05:59:32;97252.97;;;11.11;100.00
71889;BME280;59762;49.998;14.858;2022-10-24T06:01:58;97247.16;;;11.15;100.00
71889;BME280;59762;49.998;14.858;2022-10-24T06:04:23;97259.47;;;11.16;100.00
71889;BME280;59762;49.998;14.858;2022-10-24T06:06:49;97255.97;;;11.15;100.00
71889;BME280;59762;49.998;14.858;2022-10-24T06:09:14;97265.41;;;11.18;100.00
71889;BME280;59762;49.998;14.858;2022-10-24T06:11:40;97281.38;;;11.18;100.00
71889;BME280;59762;49.998;14.858;2022-10-24T06:14:07;97302.88;;;11.23;100.00
71889;BME280;59762;49.998;14.858;2022-10-24T06:16:33;97306.72;;;11.27;100.00
71889;BME280;59762;49.998;14.858;2022-10-24T06:18:59;97320.84;;;11.27;100.00
71889;BME280;59762;49.998;14.858;2022-10-24T06:21:25;97334.13;;;11.34;100.00
71889;BME280;59762;49.998;14.858;2022-10-24T06:23:51;97329.81;;;11.33;100.00
71889;BME280;59762;49.998;14.858;2022-10-24T06:26:17;97326.47;;;11.37;100.00
71889;BME280;59762;49.998;14.858;2022-10-24T06:28:42;97320.50;;;11.42;100.00
71889;BME280;59762;49.998;14.858;2022-10-24T06:31:08;97314.94;;;11.44;100.00
71889;BME280;59762;49.998;14.858;2022-10-24T06:33:35;97309.97;;;11.47;100.00
71889;BME280;59762;49.998;14.858;2022-10-24T06:36:02;97295.97;;;11.52;100.00
71889;BME280;59762;49.998;14.858;2022-10-24T06:38:34;97298.53;;;11.58;100.00
71889;BME280;59762;49.998;14.858;2022-10-24T06:41:11;97302.16;;;11.64;100.00
71889;BME280;59762;49.998;14.858;2022-10-24T06:43:38;97307.66;;;11.69;100.00
71889;BME280;59762;49.998;14.858;2022-10-24T06:46:07;97310.00;;;11.77;100.00
71889;BME280;59762;49.998;14.858;2022-10-24T06:48:34;97313.28;;;11.79;100.00
71889;BME280;59762;49.998;14.858;2022-10-24T06:51:00;97315.28;;;11.84;100.00
71889;BME280;59762;49.998;14.858;2022-10-24T06:53:26;97325.28;;;11.89;100.00
71889;BME280;59762;49.998;14.858;2022-10-24T06:55:51;97326.59;;;11.98;100.00
71889;BME280;59762;49.998;14.858;2022-10-24T06:58:17;97332.22;;;12.08;100.00
71889;BME280;59762;49.998;14.858;2022-10-24T07:00:42;97326.56;;;12.16;100.00
71889;BME280;59762;49.998;14.858;2022-10-24T07:03:13;97327.84;;;12.25;100.00
71889;BME280;59762;49.998;14.858;2022-10-24T07:05:39;97321.50;;;12.38;100.00
71889;BME280;59762;49.998;14.858;2022-10-24T07:08:04;97312.94;;;12.48;100.00
71889;BME280;59762;49.998;14.858;2022-10-24T07:10:30;97325.75;;;12.57;100.00
71889;BME280;59762;49.998;14.858;2022-10-24T07:12:56;97317.38;;;12.66;100.00
71889;BME280;59762;49.998;14.858;2022-10-24T07:15:21;97315.16;;;12.74;100.00
71889;BME280;59762;49.998;14.858;2022-10-24T07:17:47;97309.28;;;12.84;100.00
71889;BME280;59762;49.998;14.858;2022-10-24T07:20:14;97310.31;;;12.95;100.00
71889;BME280;59762;49.998;14.858;2022-10-24T07:22:41;97306.84;;;13.06;100.00
71889;BME280;59762;49.998;14.858;2022-10-24T07:25:08;97307.97;;;13.10;100.00
71889;BME280;59762;49.998;14.858;2022-10-24T07:27:34;97307.53;;;13.25;100.00
71889;BME280;59762;49.998;14.858;2022-10-24T07:29:59;97304.38;;;13.28;100.00
71889;BME280;59762;49.998;14.858;2022-10-24T07:32:25;97316.38;;;13.25;100.00
71889;BME280;59762;49.998;14.858;2022-10-24T07:34:51;97310.22;;;13.25;100.00
71889;BME280;59762;49.998;14.858;2022-10-24T07:37:17;97315.22;;;13.33;100.00
71889;BME280;59762;49.998;14.858;2022-10-24T07:39:43;97321.47;;;13.38;100.00
71889;BME280;59762;49.998;14.858;2022-10-24T07:42:12;97317.63;;;13.46;100.00
71889;BME280;59762;49.998;14.858;2022-10-24T07:44:38;97319.34;;;13.52;100.00
71889;BME280;59762;49.998;14.858;2022-10-24T07:47:03;97322.56;;;13.66;100.00
71889;BME280;59762;49.998;14.858;2022-10-24T07:49:34;97333.72;;;13.63;100.00
71889;BME280;59762;49.998;14.858;2022-10-24T07:52:01;97327.34;;;13.64;100.00
71889;BME280;59762;49.998;14.858;2022-10-24T07:54:26;97329.22;;;13.63;100.00
71889;BME280;59762;49.998;14.858;2022-10-24T07:56:53;97329.97;;;13.76;100.00
71889;BME280;59762;49.998;14.858;2022-10-24T07:59:18;97329.16;;;13.75;100.00
71889;BME280;59762;49.998;14.858;2022-10-24T08:01:46;97329.06;;;13.70;100.00
71889;BME280;59762;49.998;14.858;2022-10-24T08:04:11;97327.91;;;13.78;100.00
71889;BME280;59762;49.998;14.858;2022-10-24T08:06:39;97330.56;;;13.78;100.00
71889;BME280;59762;49.998;14.858;2022-10-24T08:09:07;97326.75;;;13.74;100.00
71889;BME280;59762;49.998;14.858;2022-10-24T08:11:33;97318.47;;;13.75;100.00
71889;BME280;59762;49.998;14.858;2022-10-24T08:14:00;97315.56;;;13.77;100.00
71889;BME280;59762;49.998;14.858;2022-10-24T08:16:27;97308.53;;;13.87;100.00
71889;BME280;59762;49.998;14.858;2022-10-24T08:18:54;97323.16;;;13.97;100.00
71889;BME280;59762;49.998;14.858;2022-10-24T08:21:21;97319.09;;;13.94;100.00
71889;BME280;59762;49.998;14.858;2022-10-24T08:23:49;97328.78;;;13.95;100.00
71889;BME280;59762;49.998;14.858;2022-10-24T08:26:17;97327.38;;;13.93;100.00
71889;BME280;59762;49.998;14.858;2022-10-24T08:28:44;97333.84;;;14.08;100.00
71889;BME280;59762;49.998;14.858;2022-10-24T08:31:13;97330.00;;;14.04;100.00
71889;BME280;59762;49.998;14.858;2022-10-24T08:33:39;97325.09;;;14.13;100.00
71889;BME280;59762;49.998;14.858;2022-10-24T08:36:13;97323.56;;;14.17;100.00
71889;BME280;59762;49.998;14.858;2022-10-24T08:38:39;97330.28;;;14.20;100.00
71889;BME280;59762;49.998;14.858;2022-10-24T08:41:05;97322.25;;;14.20;100.00
71889;BME280;59762;49.998;14.858;2022-10-24T08:43:31;97330.38;;;14.25;100.00
71889;BME280;59762;49.998;14.858;2022-10-24T08:48:51;97333.91;;;14.42;100.00
71889;BME280;59762;49.998;14.858;2022-10-24T08:54:32;97319.00;;;14.80;100.00
71889;BME280;59762;49.998;14.858;2022-10-24T08:56:59;97338.75;;;14.91;100.00
71889;BME280;59762;49.998;14.858;2022-10-24T08:59:28;97320.03;;;14.96;100.00
71889;BME280;59762;49.998;14.858;2022-10-24T09:02:21;97317.13;;;14.97;100.00
71889;BME280;59762;49.998;14.858;2022-10-24T09:04:54;97314.53;;;15.02;100.00
71889;BME280;59762;49.998;14.858;2022-10-24T09:07:29;97318.09;;;15.08;100.00
71889;BME280;59762;49.998;14.858;2022-10-24T09:10:13;97311.88;;;15.24;100.00
71889;BME280;59762;49.998;14.858;2022-10-24T09:12:41;97322.84;;;15.23;100.00
71889;BME280;59762;49.998;14.858;2022-10-24T09:15:21;97317.66;;;15.33;100.00
71889;BME280;59762;49.998;14.858;2022-10-24T09:17:55;97312.47;;;15.48;100.00
71889;BME280;59762;49.998;14.858;2022-10-24T09:20:26;97311.53;;;15.37;100.00
71889;BME280;59762;49.998;14.858;2022-10-24T09:23:01;97311.75;;;15.36;100.00
71889;BME280;59762;49.998;14.858;2022-10-24T09:25:34;97318.72;;;15.32;100.00
71889;BME280;59762;49.998;14.858;2022-10-24T09:28:02;97325.88;;;15.48;100.00
71889;BME280;59762;49.998;14.858;2022-10-24T09:30:28;97332.00;;;15.44;100.00
71889;BME280;59762;49.998;14.858;2022-10-24T09:32:55;97331.97;;;15.60;100.00
71889;BME280;59762;49.998;14.858;2022-10-24T09:35:26;97345.38;;;15.60;100.00
71889;BME280;59762;49.998;14.858;2022-10-24T09:37:58;97345.88;;;15.57;100.00
71889;BME280;59762;49.998;14.858;2022-10-24T09:40:39;97340.28;;;15.59;100.00
71889;BME280;59762;49.998;14.858;2022-10-24T09:43:17;97343.47;;;15.78;100.00
71889;BME280;59762;49.998;14.858;2022-10-24T09:45:52;97354.78;;;15.80;100.00
71889;BME280;59762;49.998;14.858;2022-10-24T09:48:29;97352.59;;;15.77;100.00
71889;BME280;59762;49.998;14.858;2022-10-24T09:50:57;97354.47;;;15.76;100.00
71889;BME280;59762;49.998;14.858;2022-10-24T09:53:38;97359.28;;;15.74;100.00
71889;BME280;59762;49.998;14.858;2022-10-24T09:56:11;97360.22;;;15.85;100.00
71889;BME280;59762;49.998;14.858;2022-10-24T09:58:38;97361.16;;;15.96;100.00
71889;BME280;59762;49.998;14.858;2022-10-24T10:01:17;97350.28;;;15.85;100.00
71889;BME280;59762;49.998;14.858;2022-10-24T10:03:59;97348.00;;;15.72;100.00
71889;BME280;59762;49.998;14.858;2022-10-24T10:06:26;97349.72;;;15.83;100.00
71889;BME280;59762;49.998;14.858;2022-10-24T10:08:55;97350.59;;;15.89;100.00
71889;BME280;59762;49.998;14.858;2022-10-24T10:11:33;97344.59;;;15.82;100.00
71889;BME280;59762;49.998;14.858;2022-10-24T10:14:00;97345.28;;;15.94;100.00
71889;BME280;59762;49.998;14.858;2022-10-24T10:16:30;97354.53;;;16.03;100.00
71889;BME280;59762;49.998;14.858;2022-10-24T10:19:15;97350.56;;;16.11;100.00
71889;BME280;59762;49.998;14.858;2022-10-24T10:24:45;97344.44;;;16.15;100.00
71889;BME280;59762;49.998;14.858;2022-10-24T10:27:31;97336.19;;;16.22;100.00
71889;BME280;59762;49.998;14.858;2022-10-24T10:38:50;97316.94;;;16.62;100.00
71889;BME280;59762;49.998;14.858;2022-10-24T10:41:48;97319.16;;;16.71;100.00
71889;BME280;59762;49.998;14.858;2022-10-24T10:44:39;97315.41;;;16.72;100.00
71889;BME280;59762;49.998;14.858;2022-10-24T10:49:44;97318.31;;;16.65;100.00
71889;BME280;59762;49.998;14.858;2022-10-24T10:52:24;97323.44;;;16.67;100.00
71889;BME280;59762;49.998;14.858;2022-10-24T10:57:53;97326.81;;;16.52;100.00
71889;BME280;59762;49.998;14.858;2022-10-24T11:00:59;97322.75;;;16.49;100.00
71889;BME280;59762;49.998;14.858;2022-10-24T11:11:47;97336.44;;;16.75;100.00
71889;BME280;59762;49.998;14.858;2022-10-24T11:17:11;97335.41;;;17.18;100.00
71889;BME280;59762;49.998;14.858;2022-10-24T11:22:06;97334.47;;;16.97;100.00
71889;BME280;59762;49.998;14.858;2022-10-24T11:24:43;97343.88;;;17.00;100.00
71889;BME280;59762;49.998;14.858;2022-10-24T11:27:19;97338.66;;;16.83;100.00
71889;BME280;59762;49.998;14.858;2022-10-24T11:29:56;97332.22;;;16.84;100.00
71889;BME280;59762;49.998;14.858;2022-10-24T11:32:30;97324.69;;;16.86;100.00
71889;BME280;59762;49.998;14.858;2022-10-24T11:35:09;97323.34;;;16.83;100.00
71889;BME280;59762;49.998;14.858;2022-10-24T11:37:41;97318.44;;;17.18;100.00
71889;BME280;59762;49.998;14.858;2022-10-24T11:40:12;97311.00;;;17.35;100.00
71889;BME280;59762;49.998;14.858;2022-10-24T11:45:11;97304.03;;;17.39;100.00
71889;BME280;59762;49.998;14.858;2022-10-24T11:50:37;97300.88;;;17.52;100.00
71889;BME280;59762;49.998;14.858;2022-10-24T11:55:38;97286.72;;;17.77;100.00
71889;BME280;59762;49.998;14.858;2022-10-24T11:58:12;97288.28;;;17.68;100.00
71889;BME280;59762;49.998;14.858;2022-10-24T12:01:06;97294.16;;;17.60;100.00
71889;BME280;59762;49.998;14.858;2022-10-24T12:12:31;97295.72;;;16.98;100.00
71889;BME280;59762;49.998;14.858;2022-10-24T12:20:22;97276.47;;;16.74;100.00
71889;BME280;59762;49.998;14.858;2022-10-24T12:22:50;97273.50;;;16.76;100.00
71889;BME280;59762;49.998;14.858;2022-10-24T12:25:21;97269.19;;;16.75;100.00
71889;BME280;59762;49.998;14.858;2022-10-24T12:27:54;97265.84;;;16.62;100.00
71889;BME280;59762;49.998;14.858;2022-10-24T12:30:22;97254.81;;;16.64;100.00
71889;BME280;59762;49.998;14.858;2022-10-24T12:32:54;97252.09;;;16.59;100.00
71889;BME280;59762;49.998;14.858;2022-10-24T12:37:55;97252.09;;;16.59;100.00
71889;BME280;59762;49.998;14.858;2022-10-24T12:40:59;97242.59;;;16.46;100.00
71889;BME280;59762;49.998;14.858;2022-10-24T12:43:42;97248.19;;;16.39;100.00
71889;BME280;59762;49.998;14.858;2022-10-24T12:48:41;97233.31;;;16.27;100.00
71889;BME280;59762;49.998;14.858;2022-10-24T12:59:34;97245.59;;;16.18;100.00
71889;BME280;59762;49.998;14.858;2022-10-24T13:19:31;97262.66;;;15.57;100.00
71889;BME280;59762;49.998;14.858;2022-10-24T13:21:28;97268.53;;;15.54;100.00
71889;BME280;59762;49.998;14.858;2022-10-24T13:42:51;97266.94;;;14.59;100.00
71889;BME280;59762;49.998;14.858;2022-10-24T13:45:24;97272.34;;;14.47;100.00
71889;BME280;59762;49.998;14.858;2022-10-24T13:47:54;97280.56;;;14.41;100.00
71889;BME280;59762;49.998;14.858;2022-10-24T13:50:30;97301.25;;;14.28;100.00
71889;BME280;59762;49.998;14.858;2022-10-24T13:53:00;97318.72;;;14.31;100.00
71889;BME280;59762;49.998;14.858;2022-10-24T13:55:36;97318.72;;;14.31;100.00
71889;BME280;59762;49.998;14.858;2022-10-24T14:00:34;97312.41;;;14.08;100.00
71889;BME280;59762;49.998;14.858;2022-10-24T14:03:03;97306.28;;;13.96;100.00
71889;BME280;59762;49.998;14.858;2022-10-24T14:05:44;97290.16;;;13.79;100.00
71889;BME280;59762;49.998;14.858;2022-10-24T14:08:21;97289.50;;;13.72;100.00
71889;BME280;59762;49.998;14.858;2022-10-24T14:10:49;97275.91;;;13.62;100.00
71889;BME280;59762;49.998;14.858;2022-10-24T14:13:17;97277.78;;;13.61;100.00
71889;BME280;59762;49.998;14.858;2022-10-24T14:15:56;97285.03;;;13.49;100.00
71889;BME280;59762;49.998;14.858;2022-10-24T14:18:25;97275.97;;;13.50;100.00
71889;BME280;59762;49.998;14.858;2022-10-24T14:20:56;97264.56;;;13.43;100.00
71889;BME280;59762;49.998;14.858;2022-10-24T14:23:34;97248.88;;;13.35;100.00
71889;BME280;59762;49.998;14.858;2022-10-24T14:26:22;97241.22;;;13.27;100.00
71889;BME280;59762;49.998;14.858;2022-10-24T14:28:50;97236.22;;;13.19;100.00
71889;BME280;59762;49.998;14.858;2022-10-24T14:31:29;97245.53;;;13.16;100.00
71889;BME280;59762;49.998;14.858;2022-10-24T14:33:57;97271.22;;;13.17;100.00
71889;BME280;59762;49.998;14.858;2022-10-24T14:36:27;97283.69;;;13.23;100.00
71889;BME280;59762;49.998;14.858;2022-10-24T14:38:55;97304.50;;;13.33;100.00
71889;BME280;59762;49.998;14.858;2022-10-24T14:41:38;97303.66;;;13.32;100.00
71889;BME280;59762;49.998;14.858;2022-10-24T14:44:05;97311.22;;;13.35;100.00
71889;BME280;59762;49.998;14.858;2022-10-24T14:46:34;97287.03;;;13.19;100.00
71889;BME280;59762;49.998;14.858;2022-10-24T14:51:50;97261.94;;;13.08;100.00
71889;BME280;59762;49.998;14.858;2022-10-24T14:54:20;97257.53;;;13.02;100.00
71889;BME280;59762;49.998;14.858;2022-10-24T14:56:46;97249.88;;;12.94;100.00
71889;BME280;59762;49.998;14.858;2022-10-24T14:59:26;97255.31;;;12.87;100.00
71889;BME280;59762;49.998;14.858;2022-10-24T15:01:58;97255.56;;;12.85;100.00
71889;BME280;59762;49.998;14.858;2022-10-24T15:04:39;97253.47;;;12.87;100.00
71889;BME280;59762;49.998;14.858;2022-10-24T15:07:14;97261.16;;;12.84;100.00